Time;durP1;ratioP1;P1;durP2;ratioP2;P2;SDS_P1;SDS_P2;PMS_P1;PMS_P2;Temp;Humidity;BMP_temperature;BMP_pressure;BME280_temperature;BME280_humidity;BME280_pressure;Samples;Min_cycle;Max_cycle;Signal;HPM_P1;HPM_P2
2021/01/07 00:01:15;;;;;;;25.70;13.82;;;;;;;0.27;100.00;100969.28;6283446;22;20016;-86
2021/01/07 00:03:40;;;;;;;28.88;14.45;;;;;;;0.27;100.00;100971.94;6279549;22;20015;-88
2021/01/07 00:06:13;;;;;;;26.10;14.13;;;;;;;0.30;100.00;100969.94;6308143;22;20097;-85
2021/01/07 00:08:39;;;;;;;26.85;12.93;;;;;;;0.29;100.00;100968.25;6282738;22;20020;-86
2021/01/07 00:11:06;;;;;;;27.77;14.88;;;;;;;0.33;100.00;100958.34;6310170;22;20465;-85
2021/01/07 00:13:32;;;;;;;32.15;16.48;;;;;;;0.35;100.00;100972.31;6281075;22;20023;-85
2021/01/07 00:15:58;;;;;;;28.30;16.58;;;;;;;0.34;100.00;100957.41;6286862;22;20080;-85
2021/01/07 00:18:23;;;;;;;29.85;16.08;;;;;;;0.34;100.00;100954.75;6311956;22;20045;-84
2021/01/07 00:20:49;;;;;;;31.58;16.20;;;;;;;0.35;100.00;100965.22;6282266;22;20035;-86
2021/01/07 00:23:15;;;;;;;28.80;15.35;;;;;;;0.34;100.00;100954.75;6311112;22;20031;-84
2021/01/07 00:25:46;;;;;;;25.95;15.40;;;;;;;0.35;100.00;100957.31;6283209;22;20022;-84
2021/01/07 00:28:12;;;;;;;28.45;13.63;;;;;;;0.35;100.00;100946.75;6286993;22;20046;-84
2021/01/07 00:30:38;;;;;;;35.75;17.92;;;;;;;0.38;100.00;100951.00;6309200;22;20024;-84
2021/01/07 00:33:04;;;;;;;30.85;16.30;;;;;;;0.35;100.00;100952.03;6311271;22;20022;-84
2021/01/07 00:35:29;;;;;;;26.85;13.80;;;;;;;0.37;100.00;100949.28;6260017;22;20019;-85
2021/01/07 00:37:55;;;;;;;30.20;16.15;;;;;;;0.37;100.00;100955.41;6307309;22;20020;-84
2021/01/07 00:40:21;;;;;;;35.85;18.15;;;;;;;0.37;100.00;100944.00;6311817;22;20031;-85
2021/01/07 00:42:47;;;;;;;26.00;15.20;;;;;;;0.38;100.00;100943.91;6270528;22;20016;-85
2021/01/07 00:45:12;;;;;;;31.52;17.33;;;;;;;0.38;100.00;100946.56;6276848;22;20050;-84
2021/01/07 00:47:38;;;;;;;29.00;14.73;;;;;;;0.39;100.00;100942.97;6281110;22;20012;-84
2021/01/07 00:50:04;;;;;;;35.70;17.52;;;;;;;0.40;100.00;100938.53;6310885;22;20446;-85
2021/01/07 00:52:29;;;;;;;29.85;15.88;;;;;;;0.40;100.00;100947.31;6310606;22;20020;-84
2021/01/07 00:54:55;;;;;;;35.42;16.77;;;;;;;0.40;100.00;100936.75;6283035;22;20042;-84
2021/01/07 00:57:21;;;;;;;35.75;18.58;;;;;;;0.43;100.00;100935.69;6309577;22;20031;-84
2021/01/07 00:59:46;;;;;;;32.40;19.00;;;;;;;0.43;100.00;100933.94;6283748;22;20020;-84
2021/01/07 01:02:11;;;;;;;32.85;15.50;;;;;;;0.42;100.00;100936.66;6311358;22;20023;-84
2021/01/07 01:04:37;;;;;;;30.45;17.95;;;;;;;0.44;100.00;100940.06;6285317;22;20435;-85
2021/01/07 01:07:03;;;;;;;34.42;16.00;;;;;;;0.45;100.00;100928.53;6265273;22;20047;-84
2021/01/07 01:09:28;;;;;;;40.67;19.13;;;;;;;0.47;100.00;100937.22;6252907;23;20313;-85
2021/01/07 01:11:54;;;;;;;28.52;14.70;;;;;;;0.41;100.00;100932.31;6254305;22;20050;-84
2021/01/07 01:14:21;;;;;;;32.75;18.55;;;;;;;0.45;100.00;100936.47;6280348;22;20091;-85
2021/01/07 01:16:48;;;;;;;31.27;17.70;;;;;;;0.42;100.00;100931.38;6278584;22;20020;-84
2021/01/07 01:19:15;;;;;;;28.88;16.67;;;;;;;0.41;100.00;100937.59;6253203;23;20070;-84
2021/01/07 01:21:41;;;;;;;34.67;19.52;;;;;;;0.41;100.00;100929.69;6251969;22;20023;-84
2021/01/07 01:24:07;;;;;;;27.67;14.52;;;;;;;0.43;100.00;100926.00;6255799;22;20064;-84
2021/01/07 01:26:32;;;;;;;32.45;16.08;;;;;;;0.42;100.00;100923.44;6252809;22;20087;-84
2021/01/07 01:28:58;;;;;;;31.67;15.15;;;;;;;0.41;100.00;100919.13;6252885;23;20066;-84
2021/01/07 01:31:24;;;;;;;32.65;18.58;;;;;;;0.47;100.00;100923.16;6252686;23;20031;-85
2021/01/07 01:33:49;;;;;;;34.03;17.73;;;;;;;0.43;100.00;100927.78;6253695;22;20012;-84
2021/01/07 01:36:15;;;;;;;33.20;16.25;;;;;;;0.42;100.00;100921.66;6253867;23;20466;-84
2021/01/07 01:38:40;;;;;;;31.17;17.38;;;;;;;0.44;100.00;100926.84;6253215;22;20174;-85
2021/01/07 01:41:07;;;;;;;29.73;16.70;;;;;;;0.43;100.00;100933.06;6255394;23;20028;-85
2021/01/07 01:43:33;;;;;;;29.20;16.50;;;;;;;0.42;100.00;100926.94;6251246;22;20012;-85
2021/01/07 01:45:59;;;;;;;35.38;16.70;;;;;;;0.42;100.00;100931.38;6254289;23;20012;-84
2021/01/07 01:48:26;;;;;;;29.80;16.80;;;;;;;0.42;100.00;100920.81;6253396;23;20027;-84
2021/01/07 01:50:52;;;;;;;33.20;17.58;;;;;;;0.42;100.00;100923.44;6251267;22;20020;-84
2021/01/07 01:53:18;;;;;;;29.83;16.30;;;;;;;0.42;100.00;100931.38;6253891;23;20032;-85
2021/01/07 01:55:44;;;;;;;38.97;17.52;;;;;;;0.42;100.00;100926.09;6252852;22;20016;-84
2021/01/07 01:58:14;;;;;;;32.55;19.02;;;;;;;0.44;100.00;100929.50;6253745;23;20031;-84
2021/01/07 02:00:40;;;;;;;32.53;16.75;;;;;;;0.42;100.00;100928.72;6252294;22;20019;-84
2021/01/07 02:03:09;;;;;;;30.90;17.52;;;;;;;0.40;100.00;100925.31;6254243;22;20028;-84
2021/01/07 02:05:36;;;;;;;32.80;18.55;;;;;;;0.42;100.00;100923.44;6276830;22;20022;-84
2021/01/07 02:08:03;;;;;;;35.15;18.13;;;;;;;0.40;100.00;100918.28;6255176;23;20043;-84
2021/01/07 02:10:31;;;;;;;29.20;16.42;;;;;;;0.39;100.00;100923.63;6246628;22;20027;-84
2021/01/07 02:12:57;;;;;;;30.35;17.63;;;;;;;0.42;100.00;100926.94;6227825;23;20098;-84
2021/01/07 02:15:23;;;;;;;27.83;15.20;;;;;;;0.40;100.00;100931.47;6215211;23;20012;-84
2021/01/07 02:17:49;;;;;;;29.90;16.40;;;;;;;0.42;100.00;100926.09;6250484;22;20095;-87
2021/01/07 02:20:14;;;;;;;33.95;17.02;;;;;;;0.40;100.00;100923.56;6228197;23;20016;-84
2021/01/07 02:22:42;;;;;;;34.97;17.27;;;;;;;0.38;100.00;100929.88;6229174;22;20028;-84
2021/01/07 02:25:09;;;;;;;33.90;18.20;;;;;;;0.39;100.00;100928.91;6213968;23;20043;-84
2021/01/07 02:27:35;;;;;;;30.85;15.32;;;;;;;0.39;100.00;100926.28;6252306;22;20040;-84
2021/01/07 02:30:01;;;;;;;28.58;16.00;;;;;;;0.37;100.00;100930.81;6228962;23;20016;-84
2021/01/07 02:32:26;;;;;;;34.65;20.33;;;;;;;0.41;100.00;100930.53;6227940;23;20047;-84
2021/01/07 02:34:55;;;;;;;30.55;16.90;;;;;;;0.40;100.00;100925.31;6231986;23;20016;-85
2021/01/07 02:37:21;;;;;;;38.83;15.95;;;;;;;0.36;100.00;100921.19;6256930;23;20016;-84
2021/01/07 02:39:46;;;;;;;37.80;19.55;;;;;;;0.42;100.00;100920.81;6254323;22;20018;-84
2021/01/07 02:42:12;;;;;;;33.65;16.38;;;;;;;0.40;100.00;100920.03;6269009;22;20099;-84
2021/01/07 02:44:37;;;;;;;27.65;14.55;;;;;;;0.36;100.00;100921.19;6252908;22;20328;-85
2021/01/07 02:47:04;;;;;;;34.08;18.15;;;;;;;0.36;100.00;100918.56;6273751;22;20027;-84
2021/01/07 02:49:30;;;;;;;30.48;15.13;;;;;;;0.33;100.00;100911.66;6284630;22;20015;-84
2021/01/07 02:52:10;;;;;;;34.88;15.95;;;;;;;0.36;100.00;100910.63;6276172;22;20759;-84
2021/01/07 02:54:36;;;;;;;25.70;11.95;;;;;;;0.32;100.00;100906.50;6286668;22;20015;-84
2021/01/07 02:57:02;;;;;;;27.85;12.73;;;;;;;0.32;100.00;100920.53;6286955;22;20153;-84
2021/01/07 02:59:28;;;;;;;26.60;13.18;;;;;;;0.35;100.00;100904.50;6270823;22;20023;-84
2021/01/07 03:01:54;;;;;;;23.80;11.82;;;;;;;0.30;100.00;100903.94;6284077;22;20016;-84
2021/01/07 03:04:21;;;;;;;22.73;13.35;;;;;;;0.31;100.00;100912.72;6285926;22;20049;-84
2021/01/07 03:06:46;;;;;;;24.58;13.93;;;;;;;0.31;100.00;100913.56;6286721;22;20015;-84
2021/01/07 03:09:13;;;;;;;26.58;15.27;;;;;;;0.33;100.00;100902.91;6287299;22;20102;-84
2021/01/07 03:11:38;;;;;;;27.25;12.27;;;;;;;0.29;100.00;100904.91;6282735;22;20043;-84
2021/01/07 03:14:04;;;;;;;26.08;15.48;;;;;;;0.30;100.00;100906.59;6285295;22;20063;-84
2021/01/07 03:16:29;;;;;;;29.70;15.50;;;;;;;0.28;100.00;100899.69;6287231;22;20026;-84
2021/01/07 03:18:55;;;;;;;27.52;15.25;;;;;;;0.29;100.00;100902.25;6284941;22;20018;-85
2021/01/07 03:21:20;;;;;;;27.25;13.70;;;;;;;0.29;100.00;100899.63;6286091;22;20223;-84
2021/01/07 03:23:46;;;;;;;27.83;17.52;;;;;;;0.29;100.00;100896.09;6285495;22;20030;-84
2021/01/07 03:26:12;;;;;;;30.08;17.13;;;;;;;0.28;100.00;100903.19;6285805;22;20426;-84
2021/01/07 03:28:37;;;;;;;20.95;11.35;;;;;;;0.24;100.00;100896.41;6285325;22;20020;-84
2021/01/07 03:31:03;;;;;;;24.45;11.35;;;;;;;0.25;100.00;100899.91;6285701;22;20020;-85
2021/01/07 03:33:29;;;;;;;24.13;14.15;;;;;;;0.26;100.00;100902.44;6286246;22;20016;-85
2021/01/07 03:35:55;;;;;;;22.02;13.40;;;;;;;0.26;100.00;100894.53;6284212;22;20026;-85
2021/01/07 03:38:20;;;;;;;21.80;12.98;;;;;;;0.23;100.00;100894.69;6284530;22;20070;-85
2021/01/07 03:40:46;;;;;;;25.33;14.43;;;;;;;0.25;100.00;100891.97;6284795;22;20028;-85
2021/01/07 03:43:12;;;;;;;25.38;15.02;;;;;;;0.25;100.00;100898.09;6282521;22;20024;-85
2021/01/07 03:45:38;;;;;;;23.33;13.90;;;;;;;0.24;100.00;100893.78;6287386;22;20019;-85
2021/01/07 03:48:04;;;;;;;23.98;14.68;;;;;;;0.29;100.00;100885.53;6286945;22;20026;-84
2021/01/07 03:50:30;;;;;;;19.40;11.30;;;;;;;0.22;100.00;100885.09;6284460;22;20477;-85
2021/01/07 03:52:56;;;;;;;23.15;14.45;;;;;;;0.31;100.00;100891.59;6288360;22;20020;-85
2021/01/07 03:55:24;;;;;;;20.17;13.02;;;;;;;0.32;100.00;100882.75;6286099;22;20030;-85
2021/01/07 03:57:49;;;;;;;20.77;12.93;;;;;;;0.28;100.00;100882.06;6283675;22;20142;-85
2021/01/07 04:00:16;;;;;;;21.50;13.23;;;;;;;0.30;100.00;100880.19;6286948;22;20012;-85
2021/01/07 04:02:41;;;;;;;19.35;10.40;;;;;;;0.25;100.00;100886.69;6284969;22;20079;-84
2021/01/07 04:05:07;;;;;;;17.80;10.35;;;;;;;0.30;100.00;100884.63;6285102;22;20047;-85
2021/01/07 04:07:33;;;;;;;19.55;11.40;;;;;;;0.31;100.00;100878.38;6288439;22;20015;-84
2021/01/07 04:09:58;;;;;;;18.92;11.82;;;;;;;0.33;100.00;100877.34;6283692;22;20012;-85
2021/01/07 04:12:24;;;;;;;20.52;12.65;;;;;;;0.36;100.00;100884.25;6285334;22;20012;-84
2021/01/07 04:14:50;;;;;;;18.20;9.93;;;;;;;0.30;100.00;100874.91;6281976;22;20023;-84
2021/01/07 04:17:15;;;;;;;18.52;10.07;;;;;;;0.26;100.00;100878.69;6288186;22;20011;-84
2021/01/07 04:19:42;;;;;;;20.67;10.80;;;;;;;0.29;100.00;100877.63;6282866;22;20030;-84
2021/01/07 04:22:07;;;;;;;19.55;11.23;;;;;;;0.30;100.00;100868.78;6287147;22;20027;-84
2021/01/07 04:24:33;;;;;;;17.67;10.20;;;;;;;0.30;100.00;100868.78;6285327;22;20039;-84
2021/01/07 04:27:04;;;;;;;18.95;10.38;;;;;;;0.29;100.00;100877.63;6270199;22;20478;-84
2021/01/07 04:29:30;;;;;;;20.05;10.02;;;;;;;0.28;100.00;100868.03;6255021;22;20012;-84
2021/01/07 04:31:58;;;;;;;20.38;11.23;;;;;;;0.30;100.00;100874.91;6287404;22;20011;-84
2021/01/07 04:34:24;;;;;;;19.27;9.98;;;;;;;0.31;100.00;100873.09;6286652;22;20012;-84
2021/01/07 04:36:50;;;;;;;20.40;12.25;;;;;;;0.30;100.00;100874.06;6283860;22;21323;-84
2021/01/07 04:39:16;;;;;;;19.15;9.65;;;;;;;0.28;100.00;100868.03;6284587;22;20020;-85
2021/01/07 04:41:42;;;;;;;19.63;11.15;;;;;;;0.30;100.00;100860.88;6284310;22;20027;-84
2021/01/07 04:44:08;;;;;;;16.52;9.18;;;;;;;0.27;100.00;100853.97;6286980;22;20016;-84
2021/01/07 04:46:34;;;;;;;16.05;7.72;;;;;;;0.25;100.00;100862.94;6282830;22;20066;-86
2021/01/07 04:49:00;;;;;;;16.02;8.05;;;;;;;0.25;100.00;100860.31;6284790;22;20486;-84
2021/01/07 04:51:26;;;;;;;16.17;8.18;;;;;;;0.25;100.00;100860.31;6249062;22;20016;-84
2021/01/07 04:53:51;;;;;;;15.77;7.80;;;;;;;0.27;100.00;100858.41;6278808;22;20027;-85
2021/01/07 04:56:17;;;;;;;14.93;8.50;;;;;;;0.30;100.00;100863.50;6253312;23;20095;-85
2021/01/07 04:58:42;;;;;;;18.75;10.20;;;;;;;0.28;100.00;100860.09;6251939;22;20046;-84
2021/01/07 05:01:09;;;;;;;15.38;8.38;;;;;;;0.25;100.00;100855.03;6271392;22;20031;-84
2021/01/07 05:03:34;;;;;;;14.55;7.78;;;;;;;0.26;100.00;100854.94;6270331;22;20072;-85
2021/01/07 05:06:00;;;;;;;16.90;10.40;;;;;;;0.26;100.00;100856.72;6286542;22;20019;-84
2021/01/07 05:08:30;;;;;;;16.80;9.98;;;;;;;0.27;100.00;100853.97;6259718;22;20011;-85
2021/01/07 05:10:56;;;;;;;19.67;10.10;;;;;;;0.27;100.00;100859.25;6284437;22;20019;-85
2021/01/07 05:13:23;;;;;;;17.10;10.15;;;;;;;0.30;100.00;100842.38;6311148;22;20031;-84
2021/01/07 05:15:49;;;;;;;16.05;10.05;;;;;;;0.26;100.00;100851.44;6284190;22;20023;-84
2021/01/07 05:18:15;;;;;;;15.90;9.10;;;;;;;0.28;100.00;100854.81;6285128;22;20027;-85
2021/01/07 05:20:41;;;;;;;16.42;8.90;;;;;;;0.31;100.00;100849.34;6311466;22;20022;-85
2021/01/07 05:23:09;;;;;;;20.65;9.77;;;;;;;0.26;100.00;100840.88;6287760;22;20042;-85
2021/01/07 05:25:41;;;;;;;17.77;10.30;;;;;;;0.32;100.00;100838.72;6270983;22;20046;-85
2021/01/07 05:28:07;;;;;;;16.15;9.27;;;;;;;0.28;100.00;100844.28;6281327;22;20026;-85
2021/01/07 05:30:34;;;;;;;18.13;10.75;;;;;;;0.30;100.00;100842.38;6283834;22;20020;-84
2021/01/07 05:33:08;;;;;;;15.85;8.80;;;;;;;0.26;100.00;100836.47;6282184;22;20022;-84
2021/01/07 05:35:35;;;;;;;15.80;8.30;;;;;;;0.25;100.00;100829.47;6283707;22;20007;-85
2021/01/07 05:38:05;;;;;;;15.90;8.20;;;;;;;0.25;100.00;100824.19;6280188;22;20026;-86
2021/01/07 05:40:31;;;;;;;16.65;8.90;;;;;;;0.27;100.00;100824.09;6307498;22;20020;-93
2021/01/07 05:42:59;;;;;;;16.20;9.10;;;;;;;0.26;100.00;100825.03;6305592;22;20014;-85
2021/01/07 05:45:43;;;;;;;14.98;6.70;;;;;;;0.21;100.00;100823.53;6283991;22;20011;-86
2021/01/07 05:48:10;;;;;;;14.88;8.18;;;;;;;0.24;100.00;100824.31;6249240;22;20022;-84
2021/01/07 05:50:39;;;;;;;17.40;8.88;;;;;;;0.25;100.00;100824.19;6251508;22;20012;-84
2021/01/07 05:53:05;;;;;;;15.88;8.20;;;;;;;0.23;100.00;100818.16;6273253;22;20016;-86
2021/01/07 05:55:32;;;;;;;16.02;10.00;;;;;;;0.26;100.00;100819.75;6280746;22;20015;-84
2021/01/07 05:58:00;;;;;;;18.08;9.48;;;;;;;0.25;100.00;100828.63;6284092;22;20058;-84
2021/01/07 06:00:32;;;;;;;16.65;8.93;;;;;;;0.28;100.00;100820.50;6279905;22;20086;-90
2021/01/07 06:03:00;;;;;;;16.95;9.68;;;;;;;0.28;100.00;100824.00;6280420;22;20019;-86
2021/01/07 06:05:26;;;;;;;18.73;10.00;;;;;;;0.28;100.00;100815.22;6282722;22;20012;-89
2021/01/07 06:07:53;;;;;;;16.42;9.05;;;;;;;0.27;100.00;100822.31;6282426;22;20019;-85
2021/01/07 06:10:21;;;;;;;19.30;10.68;;;;;;;0.29;100.00;100825.72;6285165;22;20016;-85
2021/01/07 06:12:47;;;;;;;18.65;10.15;;;;;;;0.27;100.00;100824.09;6281494;22;20071;-85
2021/01/07 06:15:15;;;;;;;17.77;9.30;;;;;;;0.26;100.00;100819.75;6284232;22;20036;-85
2021/01/07 06:17:43;;;;;;;16.23;8.95;;;;;;;0.27;100.00;100816.19;6280555;22;20058;-85
2021/01/07 06:20:20;;;;;;;17.85;10.73;;;;;;;0.29;100.00;100824.84;6282371;22;20016;-85
2021/01/07 06:22:50;;;;;;;17.58;9.73;;;;;;;0.26;100.00;100820.63;6268155;22;20022;-85
2021/01/07 06:25:21;;;;;;;16.60;8.35;;;;;;;0.27;100.00;100824.09;6283098;22;20019;-85
2021/01/07 06:27:49;;;;;;;20.30;11.85;;;;;;;0.31;100.00;100829.06;6282114;22;20086;-85
2021/01/07 06:30:15;;;;;;;19.30;11.00;;;;;;;0.29;100.00;100820.44;6285179;22;20020;-86
2021/01/07 06:32:42;;;;;;;19.63;10.48;;;;;;;0.31;100.00;100825.59;6285203;22;20266;-85
2021/01/07 06:35:18;;;;;;;19.42;10.00;;;;;;;0.33;100.00;100826.34;6282746;22;20631;-85
2021/01/07 06:37:49;;;;;;;18.98;9.57;;;;;;;0.28;100.00;100823.16;6282596;22;20019;-85
2021/01/07 06:40:17;;;;;;;17.35;8.88;;;;;;;0.28;100.00;100829.28;6284784;22;20020;-85
2021/01/07 06:42:47;;;;;;;19.33;10.80;;;;;;;0.33;100.00;100826.34;6285152;22;20091;-85
2021/01/07 06:45:13;;;;;;;20.13;10.00;;;;;;;0.31;100.00;100828.22;6287164;22;20015;-85
2021/01/07 06:47:41;;;;;;;16.75;8.65;;;;;;;0.30;100.00;100829.19;6282259;22;20152;-85
2021/01/07 06:50:07;;;;;;;21.98;10.45;;;;;;;0.35;100.00;100832.38;6279939;22;20019;-86
2021/01/07 06:52:40;;;;;;;22.20;10.57;;;;;;;0.31;100.00;100825.59;6269223;22;20028;-85
2021/01/07 06:55:13;;;;;;;20.63;11.18;;;;;;;0.30;100.00;100816.00;6289452;22;20071;-85
2021/01/07 06:57:46;;;;;;;24.23;12.93;;;;;;;0.32;100.00;100822.88;6266916;22;20023;-85
2021/01/07 07:00:15;;;;;;;27.15;16.73;;;;;;;0.37;100.00;100822.56;6286270;22;20085;-87
2021/01/07 07:02:58;;;;;;;32.90;18.45;;;;;;;0.38;100.00;100813.72;6281960;22;20019;-86
2021/01/07 07:05:25;;;;;;;27.27;14.57;;;;;;;0.34;100.00;100820.13;6273732;22;20012;-86
2021/01/07 07:08:21;;;;;;;27.05;15.15;;;;;;;0.32;100.00;100820.22;6282493;22;20011;-88
2021/01/07 07:10:56;;;;;;;32.22;18.55;;;;;;;0.34;100.00;100813.03;6281559;22;20090;-87
2021/01/07 07:13:26;;;;;;;31.13;17.63;;;;;;;0.35;100.00;100819.19;6284570;22;20011;-84
2021/01/07 07:15:52;;;;;;;39.08;20.45;;;;;;;0.36;100.00;100818.25;6278381;22;20107;-84
2021/01/07 07:18:48;;;;;;;32.47;19.25;;;;;;;0.37;100.00;100822.56;6273552;22;20016;-91
2021/01/07 07:21:16;;;;;;;40.13;22.75;;;;;;;0.40;100.00;100822.34;6251651;22;20109;-85
2021/01/07 07:23:48;;;;;;;36.83;19.65;;;;;;;0.37;100.00;100820.75;6278586;22;20054;-85
2021/01/07 07:26:30;;;;;;;39.45;20.15;;;;;;;0.36;100.00;100823.50;6298691;22;20114;-89
2021/01/07 07:29:13;;;;;;;36.35;21.27;;;;;;;0.38;100.00;100825.13;6273455;22;20007;-86
2021/01/07 07:31:47;;;;;;;37.85;21.77;;;;;;;0.38;100.00;100824.28;6276598;22;20444;-83
2021/01/07 07:34:16;;;;;;;35.00;18.08;;;;;;;0.37;100.00;100827.84;6282286;22;20023;-84
2021/01/07 07:36:43;;;;;;;37.80;22.00;;;;;;;0.36;100.00;100829.63;6281099;22;20016;-84
2021/01/07 07:39:09;;;;;;;40.30;21.30;;;;;;;0.41;100.00;100830.19;6283088;22;20027;-83
2021/01/07 07:41:43;;;;;;;39.17;19.42;;;;;;;0.39;100.00;100826.81;6280753;22;20041;-84
2021/01/07 07:44:09;;;;;;;32.50;15.85;;;;;;;0.38;100.00;100829.56;6284238;22;20012;-85
2021/01/07 07:46:36;;;;;;;33.45;16.77;;;;;;;0.39;100.00;100825.97;6280465;22;20075;-84
2021/01/07 07:49:03;;;;;;;40.80;21.00;;;;;;;0.42;100.00;100825.75;6284286;22;20016;-84
2021/01/07 07:51:29;;;;;;;33.13;15.77;;;;;;;0.41;100.00;100826.72;6280068;22;20016;-84
2021/01/07 07:54:11;;;;;;;30.65;15.82;;;;;;;0.39;100.00;100826.81;6282907;22;20027;-84
2021/01/07 07:56:37;;;;;;;39.50;20.55;;;;;;;0.40;100.00;100833.78;6284699;22;20024;-85
2021/01/07 07:59:05;;;;;;;35.35;17.35;;;;;;;0.40;100.00;100833.78;6286366;22;20015;-85
2021/01/07 08:01:59;;;;;;;38.00;20.25;;;;;;;0.38;100.00;100834.84;6282581;22;20019;-84
2021/01/07 08:04:26;;;;;;;41.00;19.75;;;;;;;0.40;100.00;100833.78;6212850;22;20043;-84
2021/01/07 08:06:52;;;;;;;45.70;20.50;;;;;;;0.39;100.00;100832.09;6252699;22;20020;-84
2021/01/07 08:09:19;;;;;;;40.50;19.90;;;;;;;0.44;100.00;100839.72;6253234;23;20043;-84
2021/01/07 08:11:49;;;;;;;47.90;22.73;;;;;;;0.41;100.00;100837.28;6227049;22;20012;-85
2021/01/07 08:14:22;;;;;;;47.13;25.45;;;;;;;0.43;100.00;100836.25;6279883;22;20020;-85
2021/01/07 08:16:49;;;;;;;44.53;24.63;;;;;;;0.43;100.00;100841.53;6250676;22;20047;-85
2021/01/07 08:19:32;;;;;;;54.33;26.45;;;;;;;0.46;100.00;100837.81;6253340;23;20028;-84
2021/01/07 08:21:58;;;;;;;49.10;27.20;;;;;;;0.48;100.00;100851.75;6239877;22;20038;-86
2021/01/07 08:24:27;;;;;;;57.42;29.02;;;;;;;0.53;100.00;100849.69;6253870;23;20080;-84
2021/01/07 08:27:09;;;;;;;48.13;25.52;;;;;;;0.52;100.00;100848.00;6254003;22;20022;-84
2021/01/07 08:29:38;;;;;;;55.60;25.35;;;;;;;0.48;100.00;100854.41;6250826;22;20016;-84
2021/01/07 08:32:05;;;;;;;54.38;29.70;;;;;;;0.51;100.00;100846.28;6278725;22;20016;-86
2021/01/07 08:34:32;;;;;;;55.80;25.45;;;;;;;0.54;100.00;100850.53;6254333;23;20040;-84
2021/01/07 08:37:19;;;;;;;58.15;29.88;;;;;;;0.55;100.00;100847.81;6252485;23;20099;-86
2021/01/07 08:39:45;;;;;;;46.33;20.83;;;;;;;0.53;100.00;100848.84;6240765;22;20395;-85
2021/01/07 08:42:11;;;;;;;56.38;27.23;;;;;;;0.52;100.00;100848.00;6253839;23;20072;-85
2021/01/07 08:44:37;;;;;;;52.00;24.75;;;;;;;0.56;100.00;100851.28;6253589;22;20027;-85
2021/01/07 08:47:03;;;;;;;51.75;21.02;;;;;;;0.59;100.00;100851.94;6242282;22;20051;-85
2021/01/07 08:49:29;;;;;;;45.10;22.50;;;;;;;0.56;100.00;100840.72;6240635;23;20016;-85
2021/01/07 08:51:59;;;;;;;54.85;27.10;;;;;;;0.57;100.00;100848.53;6251663;23;20022;-85
2021/01/07 08:54:26;;;;;;;60.70;30.10;;;;;;;0.61;100.00;100844.75;6252386;23;20334;-84
2021/01/07 08:56:53;;;;;;;51.30;22.58;;;;;;;0.58;100.00;100844.13;6250573;22;20020;-86
2021/01/07 08:59:31;;;;;;;58.22;27.27;;;;;;;0.61;100.00;100852.69;6257765;22;20016;-86
2021/01/07 09:02:21;;;;;;;58.77;26.60;;;;;;;0.61;100.00;100852.69;6233140;23;20026;-87
2021/01/07 09:04:52;;;;;;;57.20;25.25;;;;;;;0.62;100.00;100849.09;6220099;23;20243;-87
2021/01/07 09:07:19;;;;;;;55.47;28.60;;;;;;;0.60;100.00;100850.13;6248118;23;20017;-86
2021/01/07 09:09:53;;;;;;;58.95;20.23;;;;;;;0.63;100.00;100853.44;6222097;23;20017;-87
2021/01/07 09:12:27;;;;;;;63.33;27.23;;;;;;;0.62;100.00;100849.09;6247310;23;20017;-84
2021/01/07 09:14:53;;;;;;;51.30;21.05;;;;;;;0.61;100.00;100849.19;6220724;23;20507;-85
2021/01/07 09:17:26;;;;;;;63.63;25.30;;;;;;;0.62;100.00;100849.09;6223173;23;20027;-86
2021/01/07 09:19:52;;;;;;;55.00;24.45;;;;;;;0.66;100.00;100849.72;6219390;23;20036;-85
2021/01/07 09:22:23;;;;;;;67.45;29.98;;;;;;;0.68;100.00;100853.97;6223411;23;20021;-85
2021/01/07 09:24:50;;;;;;;62.40;26.55;;;;;;;0.67;100.00;100848.81;6222817;23;20021;-85
2021/01/07 09:27:18;;;;;;;67.72;31.15;;;;;;;0.67;100.00;100847.00;6222293;23;20069;-85
2021/01/07 09:29:44;;;;;;;64.15;24.13;;;;;;;0.71;100.00;100842.38;6219368;23;20079;-84
2021/01/07 09:32:12;;;;;;;70.10;32.05;;;;;;;0.71;100.00;100844.16;6223010;23;20020;-84
2021/01/07 09:34:38;;;;;;;60.63;25.42;;;;;;;0.71;100.00;100845.00;6220855;23;20044;-85
2021/01/07 09:37:21;;;;;;;61.58;26.60;;;;;;;0.72;100.00;100838.78;6222647;23;20026;-84
2021/01/07 09:39:50;;;;;;;61.17;28.08;;;;;;;0.69;100.00;100838.97;6219325;23;20020;-84
2021/01/07 09:42:28;;;;;;;58.95;27.38;;;;;;;0.71;100.00;100841.53;6222894;23;20036;-84
2021/01/07 09:44:54;;;;;;;69.53;30.45;;;;;;;0.76;100.00;100829.72;6222121;23;20025;-84
2021/01/07 09:47:20;;;;;;;61.20;27.15;;;;;;;0.73;100.00;100832.56;6221363;23;20016;-85
2021/01/07 09:49:45;;;;;;;58.53;24.35;;;;;;;0.74;100.00;100831.59;6221911;23;20013;-84
2021/01/07 09:52:11;;;;;;;51.05;22.92;;;;;;;0.75;100.00;100833.31;6224249;23;20020;-86
2021/01/07 09:54:38;;;;;;;60.72;30.17;;;;;;;0.83;100.00;100835.44;6219114;23;20088;-85
2021/01/07 09:57:04;;;;;;;52.17;24.98;;;;;;;0.80;100.00;100833.00;6222142;23;20463;-84
2021/01/07 09:59:30;;;;;;;55.15;26.33;;;;;;;0.81;100.00;100832.06;6219824;23;20081;-84
2021/01/07 10:02:03;;;;;;;55.30;22.80;;;;;;;0.79;100.00;100828.66;6228324;23;20020;-87
2021/01/07 10:04:31;;;;;;;50.75;24.52;;;;;;;0.80;100.00;100820.63;6246228;22;20538;-84
2021/01/07 10:06:57;;;;;;;36.53;16.88;;;;;;;0.81;100.00;100829.41;6250560;23;20015;-86
2021/01/07 10:09:23;;;;;;;42.65;20.92;;;;;;;0.82;100.00;100823.19;6251299;23;20017;-85
2021/01/07 10:11:56;;;;;;;45.45;19.67;;;;;;;0.83;100.00;100809.84;6250960;22;20065;-85
2021/01/07 10:14:23;;;;;;;50.45;22.77;;;;;;;0.89;100.00;100824.44;6251449;23;20364;-84
2021/01/07 10:16:51;;;;;;;40.85;17.73;;;;;;;0.89;100.00;100822.69;6250874;22;20092;-87
2021/01/07 10:19:17;;;;;;;46.75;21.60;;;;;;;0.90;100.00;100816.44;6250189;23;20024;-84
2021/01/07 10:21:47;;;;;;;50.83;25.45;;;;;;;0.96;100.00;100815.19;6247419;22;20447;-84
2021/01/07 10:24:16;;;;;;;57.45;27.27;;;;;;;0.99;100.00;100814.97;6277812;22;20032;-87
2021/01/07 10:26:42;;;;;;;104.82;47.92;;;;;;;0.99;100.00;100807.06;6249562;22;20020;-87
2021/01/07 10:29:08;;;;;;;71.63;34.38;;;;;;;1.02;100.00;100812.13;6251676;23;20027;-84
2021/01/07 10:31:34;;;;;;;59.28;27.20;;;;;;;1.01;100.00;100807.81;6252921;23;20016;-85
2021/01/07 10:34:04;;;;;;;37.17;16.83;;;;;;;1.01;100.00;100805.16;6254765;22;20012;-85
2021/01/07 10:36:30;;;;;;;42.22;20.10;;;;;;;1.01;100.00;100806.97;6252372;23;20078;-88
2021/01/07 10:38:58;;;;;;;37.47;18.45;;;;;;;1.05;100.00;100798.72;6251713;22;20016;-85
2021/01/07 10:41:28;;;;;;;41.55;21.33;;;;;;;1.07;100.00;100799.47;6253065;23;20040;-86
2021/01/07 10:43:58;;;;;;;34.17;18.02;;;;;;;1.08;100.00;100797.66;6252952;23;20079;-89
2021/01/07 10:46:24;;;;;;;30.95;15.77;;;;;;;1.07;100.00;100796.81;6254109;22;20012;-86
2021/01/07 10:48:50;;;;;;;31.92;15.63;;;;;;;1.08;100.00;100800.31;6250670;22;20069;-84
2021/01/07 10:51:17;;;;;;;34.85;19.70;;;;;;;1.11;100.00;100802.75;6280601;22;20020;-85
2021/01/07 10:54:24;;;;;;;42.92;21.25;;;;;;;1.07;100.00;100788.88;6253231;22;20043;-84
2021/01/07 10:57:33;;;;;;;38.97;20.08;;;;;;;1.10;100.00;100793.97;6162900;23;20024;-88
2021/01/07 11:00:09;;;;;;;29.90;14.93;;;;;;;1.09;100.00;100789.66;6304830;22;20018;-86
2021/01/07 11:02:47;;;;;;;29.25;15.98;;;;;;;1.13;100.00;100795.56;6304653;22;20019;-85
2021/01/07 11:05:17;;;;;;;52.97;34.00;;;;;;;1.17;100.00;100785.63;6281997;22;20019;-87
2021/01/07 11:08:20;;;;;;;41.53;23.25;;;;;;;1.17;100.00;100778.53;6304628;22;20019;-85
2021/01/07 11:10:59;;;;;;;70.15;38.15;;;;;;;1.22;100.00;100783.50;6280711;22;20136;-88
2021/01/07 11:13:40;;;;;;;34.05;17.05;;;;;;;1.19;100.00;100778.44;6278054;22;20011;-87
2021/01/07 11:16:10;;;;;;;44.28;25.42;;;;;;;1.19;100.00;100778.44;6251933;22;20016;-88